Time;durP1;ratioP1;P1;durP2;ratioP2;P2;SDS_P1;SDS_P2;PMS_P1;PMS_P2;Temp;Humidity;BMP_temperature;BMP_pressure;BME280_temperature;BME280_humidity;BME280_pressure;Samples;Min_cycle;Max_cycle;Signal;HPM_P1;HPM_P2
2022/09/30 00:01:07;;;;;;;7.72;5.28;;;10.00;99.90;;;;;;5132604;27;20039;-64
2022/09/30 00:03:34;;;;;;;5.05;4.53;;;10.00;99.90;;;;;;5133768;27;20050;-64
2022/09/30 00:06:03;;;;;;;8.38;5.30;;;9.90;99.90;;;;;;5114850;27;20050;-64
2022/09/30 00:08:29;;;;;;;9.30;5.97;;;10.00;99.90;;;;;;5133857;27;20122;-64
2022/09/30 00:11:15;;;;;;;7.22;5.85;;;10.00;99.90;;;;;;5133692;27;20118;-64
2022/09/30 00:13:41;;;;;;;8.10;6.15;;;10.00;99.90;;;;;;5133507;27;20035;-64
2022/09/30 00:16:09;;;;;;;8.57;6.47;;;10.00;99.90;;;;;;5133341;27;20066;-64
2022/09/30 00:18:35;;;;;;;11.77;6.68;;;10.00;99.90;;;;;;5133355;27;20043;-64
2022/09/30 00:21:01;;;;;;;11.32;8.35;;;10.00;99.90;;;;;;5133557;27;20035;-64
2022/09/30 00:23:27;;;;;;;11.77;9.07;;;10.00;99.90;;;;;;5133412;27;20487;-64
2022/09/30 00:25:58;;;;;;;11.68;8.32;;;10.00;99.90;;;;;;5133297;27;20179;-64
2022/09/30 00:28:23;;;;;;;12.73;7.75;;;10.10;99.90;;;;;;5132243;27;20108;-64
2022/09/30 00:30:49;;;;;;;9.93;7.88;;;10.10;99.90;;;;;;5133300;27;20709;-64
2022/09/30 00:33:15;;;;;;;12.43;7.97;;;10.00;99.90;;;;;;5132086;27;20035;-64
2022/09/30 00:35:40;;;;;;;9.18;7.55;;;10.00;99.90;;;;;;5132840;27;20410;-64
2022/09/30 00:38:06;;;;;;;8.57;7.10;;;10.00;99.90;;;;;;5133028;27;20456;-64
2022/09/30 00:40:32;;;;;;;9.20;7.35;;;10.00;99.90;;;;;;5133213;27;20494;-64
2022/09/30 00:42:58;;;;;;;8.35;7.50;;;10.00;99.90;;;;;;5133216;27;20041;-64
2022/09/30 00:45:27;;;;;;;6.90;6.13;;;9.90;99.90;;;;;;5114144;27;20047;-64
2022/09/30 00:48:00;;;;;;;7.55;6.63;;;9.90;99.90;;;;;;5133078;27;20050;-64
2022/09/30 00:50:31;;;;;;;6.95;5.90;;;9.80;99.90;;;;;;5132979;27;20046;-64
2022/09/30 00:53:03;;;;;;;5.85;5.25;;;9.90;99.90;;;;;;5133183;27;20114;-64
2022/09/30 00:55:29;;;;;;;6.72;5.68;;;9.80;99.90;;;;;;5132550;27;20495;-64
2022/09/30 00:57:55;;;;;;;5.68;5.18;;;9.80;99.90;;;;;;5132886;27;20078;-64
2022/09/30 01:00:21;;;;;;;5.88;5.20;;;9.70;99.90;;;;;;5132719;27;20085;-64
2022/09/30 01:02:48;;;;;;;6.25;5.65;;;9.70;99.90;;;;;;5132542;27;20039;-64
2022/09/30 01:05:14;;;;;;;8.30;5.25;;;9.70;99.90;;;;;;5132164;27;20035;-64
2022/09/30 01:07:40;;;;;;;5.80;4.43;;;9.60;99.90;;;;;;5132988;27;20452;-64
2022/09/30 01:10:06;;;;;;;5.68;5.18;;;9.50;99.90;;;;;;5132672;27;20031;-64
2022/09/30 01:12:31;;;;;;;7.00;5.00;;;9.50;99.90;;;;;;5132785;27;20027;-64
2022/09/30 01:14:59;;;;;;;6.35;5.68;;;9.60;99.90;;;;;;5132449;27;20031;-64
2022/09/30 01:17:28;;;;;;;7.28;5.45;;;9.60;99.90;;;;;;5132405;27;20107;-64
2022/09/30 01:20:34;;;;;;;6.30;5.47;;;9.60;99.90;;;;;;5132801;28;20043;-64
2022/09/30 01:23:15;;;;;;;6.18;5.65;;;9.60;99.90;;;;;;5102469;27;20055;-64
2022/09/30 01:26:18;;;;;;;6.80;6.10;;;9.60;99.90;;;;;;5131957;28;20043;-64
2022/09/30 01:28:47;;;;;;;7.43;6.43;;;9.60;99.90;;;;;;5132668;27;20365;-64
2022/09/30 01:31:48;;;;;;;7.07;6.40;;;9.50;99.90;;;;;;5132475;28;20031;-64
2022/09/30 01:34:35;;;;;;;6.80;6.03;;;9.50;99.90;;;;;;5130899;27;20093;-64
2022/09/30 01:37:25;;;;;;;6.47;5.85;;;9.30;99.90;;;;;;5132360;27;20487;-64
2022/09/30 01:40:04;;;;;;;5.90;5.40;;;9.30;99.90;;;;;;5132443;27;20069;-64
2022/09/30 01:43:01;;;;;;;5.78;5.25;;;9.40;99.90;;;;;;5132341;27;20049;-64
2022/09/30 01:45:31;;;;;;;6.10;5.50;;;9.40;99.90;;;;;;5132207;27;20035;-64
2022/09/30 01:48:21;;;;;;;6.65;5.95;;;9.30;99.90;;;;;;5132417;28;20046;-64
2022/09/30 01:51:02;;;;;;;7.10;6.03;;;9.30;99.90;;;;;;5132692;27;20039;-64
2022/09/30 01:53:44;;;;;;;6.32;5.72;;;9.30;99.90;;;;;;5132496;27;20056;-64
2022/09/30 01:56:17;;;;;;;6.85;6.18;;;9.30;99.90;;;;;;5132291;27;20161;-64
2022/09/30 01:58:45;;;;;;;;;;;9.20;99.90;;;;;;5132679;27;20511;-64
2022/09/30 02:01:18;;;;;;;7.82;5.57;;;9.20;99.90;;;;;;5132566;28;19964;-64
2022/09/30 02:03:48;;;;;;;5.80;5.30;;;9.20;99.90;;;;;;5130813;28;20062;-64
2022/09/30 02:06:19;;;;;;;6.45;5.85;;;9.20;99.90;;;;;;5132293;27;20059;-64
2022/09/30 02:08:56;;;;;;;6.50;5.90;;;9.20;99.90;;;;;;5132222;27;20099;-64
2022/09/30 02:11:26;;;;;;;7.03;5.63;;;9.20;99.90;;;;;;5132113;27;20114;-64
2022/09/30 02:14:16;;;;;;;7.65;5.57;;;9.20;99.90;;;;;;5132121;27;20038;-64
2022/09/30 02:17:01;;;;;;;7.63;6.32;;;9.10;99.90;;;;;;5135944;27;20092;-64
2022/09/30 02:19:35;;;;;;;6.78;6.07;;;9.10;99.90;;;;;;5135894;27;20364;-64
2022/09/30 02:22:25;;;;;;;6.57;5.93;;;9.10;99.90;;;;;;5135735;27;20087;-64
2022/09/30 02:24:58;;;;;;;6.68;5.97;;;9.10;99.90;;;;;;5134588;27;20047;-64
2022/09/30 02:27:33;;;;;;;6.88;6.10;;;9.00;99.90;;;;;;5135816;27;20078;-64
2022/09/30 02:30:02;;;;;;;6.38;5.82;;;9.00;99.90;;;;;;5135660;27;20438;-64
2022/09/30 02:32:39;;;;;;;7.20;5.57;;;8.90;99.90;;;;;;5135772;27;20042;-64
2022/09/30 02:35:18;;;;;;;6.60;5.95;;;8.90;99.90;;;;;;5135149;27;20499;-64
2022/09/30 02:37:52;;;;;;;6.57;5.97;;;8.90;99.90;;;;;;5135617;27;20047;-64
2022/09/30 02:40:27;;;;;;;6.10;5.50;;;8.90;99.90;;;;;;5135357;27;20039;-64
2022/09/30 02:42:53;;;;;;;6.85;6.15;;;8.80;99.90;;;;;;5134101;27;20039;-64
2022/09/30 02:45:21;;;;;;;6.82;6.18;;;8.80;99.90;;;;;;5135066;27;20050;-64
2022/09/30 02:48:10;;;;;;;6.82;6.20;;;8.70;99.90;;;;;;5135484;27;20410;-64
2022/09/30 02:50:53;;;;;;;5.55;4.93;;;8.70;99.90;;;;;;5134696;27;20126;-64
2022/09/30 02:53:42;;;;;;;5.97;5.38;;;8.60;99.90;;;;;;5134983;27;20110;-64
2022/09/30 02:56:16;;;;;;;7.75;5.90;;;8.60;99.90;;;;;;5122712;27;20156;-64
2022/09/30 02:58:43;;;;;;;6.45;5.85;;;8.60;99.90;;;;;;5135007;27;20042;-64
2022/09/30 03:01:14;;;;;;;5.85;5.32;;;8.60;99.90;;;;;;5134994;27;20570;-64
2022/09/30 03:03:47;;;;;;;9.93;5.60;;;8.60;99.90;;;;;;5134916;27;20085;-64
2022/09/30 03:06:13;;;;;;;7.90;5.97;;;8.60;99.90;;;;;;5134993;27;20049;-64
2022/09/30 03:08:40;;;;;;;6.03;5.40;;;8.60;99.90;;;;;;5134885;27;20062;-64
2022/09/30 03:11:06;;;;;;;6.38;5.32;;;8.60;99.90;;;;;;5134893;27;20043;-64
2022/09/30 03:14:04;;;;;;;6.43;4.68;;;8.50;99.90;;;;;;5134843;27;20039;-64
2022/09/30 03:16:49;;;;;;;5.35;4.85;;;8.60;99.90;;;;;;5134862;27;20140;-65
2022/09/30 03:19:44;;;;;;;4.05;3.75;;;8.50;99.90;;;;;;5134144;27;20394;-64
2022/09/30 03:22:22;;;;;;;4.00;3.70;;;8.50;99.90;;;;;;5134896;27;20044;-64
2022/09/30 03:25:28;;;;;;;4.50;4.10;;;8.40;99.90;;;;;;5134279;27;20035;-64
2022/09/30 03:28:21;;;;;;;5.55;4.50;;;8.40;99.90;;;;;;5134491;27;20411;-64
2022/09/30 03:31:17;;;;;;;4.57;4.28;;;8.30;99.90;;;;;;5134638;27;20027;-64
2022/09/30 03:33:59;;;;;;;4.70;4.30;;;8.30;99.90;;;;;;5134240;27;20031;-64
2022/09/30 03:36:47;;;;;;;4.93;4.43;;;8.30;99.90;;;;;;5134641;27;20062;-64
2022/09/30 03:39:22;;;;;;;4.82;4.43;;;8.30;99.90;;;;;;5134358;27;20036;-64
2022/09/30 03:42:03;;;;;;;4.55;4.15;;;8.20;99.90;;;;;;5134381;27;20060;-64
2022/09/30 03:44:35;;;;;;;4.30;3.97;;;8.20;99.90;;;;;;5133842;27;20042;-64
2022/09/30 03:47:09;;;;;;;4.43;4.03;;;8.20;99.90;;;;;;5134132;27;20079;-64
2022/09/30 03:49:38;;;;;;;5.18;4.35;;;8.20;99.90;;;;;;5134288;27;20035;-64
2022/09/30 03:52:06;;;;;;;5.53;4.15;;;8.20;99.90;;;;;;5134142;27;20399;-64
2022/09/30 03:54:32;;;;;;;4.30;3.90;;;8.20;99.90;;;;;;5133734;27;20039;-64
2022/09/30 03:57:02;;;;;;;4.10;3.80;;;8.20;99.90;;;;;;5133777;27;20501;-64
2022/09/30 03:59:27;;;;;;;4.75;4.25;;;8.10;99.90;;;;;;5133923;27;20515;-64
2022/09/30 04:01:54;;;;;;;3.83;3.53;;;7.90;99.90;;;;;;5134028;27;20126;-64
2022/09/30 04:04:20;;;;;;;3.60;3.30;;;7.90;99.90;;;;;;5133663;27;20444;-64
2022/09/30 04:06:45;;;;;;;3.72;3.42;;;7.90;99.90;;;;;;5133679;27;20039;-64
2022/09/30 04:09:12;;;;;;;3.92;3.53;;;8.00;99.90;;;;;;5133657;27;20063;-64
2022/09/30 04:11:37;;;;;;;3.92;3.63;;;8.00;99.90;;;;;;5133648;27;20039;-65
2022/09/30 04:14:04;;;;;;;3.30;3.00;;;7.90;99.90;;;;;;5133537;27;20038;-64
2022/09/30 04:16:31;;;;;;;3.40;3.20;;;7.70;99.90;;;;;;5133621;27;20088;-64
2022/09/30 04:18:56;;;;;;;3.67;3.20;;;7.70;99.90;;;;;;5133662;27;20035;-64
2022/09/30 04:21:22;;;;;;;3.67;3.38;;;7.70;99.90;;;;;;5133537;27;20050;-64
2022/09/30 04:23:48;;;;;;;3.40;3.20;;;7.80;99.90;;;;;;5133178;27;20553;-64
2022/09/30 04:26:17;;;;;;;3.55;3.28;;;7.80;99.90;;;;;;5133201;27;20043;-64
2022/09/30 04:28:42;;;;;;;3.88;3.58;;;7.80;99.90;;;;;;5132827;27;20503;-64
2022/09/30 04:31:10;;;;;;;4.50;4.10;;;7.80;99.90;;;;;;5133385;27;20047;-64
2022/09/30 04:33:36;;;;;;;4.43;4.03;;;7.70;99.90;;;;;;5133328;27;20415;-64
2022/09/30 04:36:03;;;;;;;4.65;4.25;;;7.70;99.90;;;;;;5132771;27;20045;-64
2022/09/30 04:38:29;;;;;;;6.95;4.40;;;7.70;99.90;;;;;;5149225;27;20338;-64
2022/09/30 04:40:56;;;;;;;4.32;3.92;;;7.70;99.90;;;;;;5153788;27;20514;-64
2022/09/30 04:43:23;;;;;;;4.50;3.88;;;7.50;99.90;;;;;;5152642;27;20051;-64
2022/09/30 04:45:50;;;;;;;4.43;4.03;;;7.40;99.90;;;;;;5153493;27;20046;-64
2022/09/30 04:48:15;;;;;;;4.05;3.65;;;7.40;99.90;;;;;;5153821;27;20060;-64
2022/09/30 04:50:41;;;;;;;4.50;3.88;;;7.50;99.90;;;;;;5153580;27;20454;-65
2022/09/30 04:53:13;;;;;;;4.50;4.15;;;7.50;99.90;;;;;;5153768;27;20121;-64
2022/09/30 04:55:39;;;;;;;3.83;3.50;;;7.50;99.90;;;;;;5153444;27;20504;-64
2022/09/30 04:58:05;;;;;;;4.10;3.70;;;7.50;99.90;;;;;;5153550;27;20035;-64
2022/09/30 05:00:30;;;;;;;4.85;3.20;;;7.50;99.90;;;;;;5153571;27;20402;-64
2022/09/30 05:02:56;;;;;;;5.25;3.50;;;7.50;99.90;;;;;;5153418;27;20487;-64
2022/09/30 05:05:22;;;;;;;4.00;3.42;;;7.50;99.90;;;;;;5153232;27;20456;-64
2022/09/30 05:07:47;;;;;;;4.55;4.15;;;7.50;99.90;;;;;;5153639;27;20032;-64
2022/09/30 05:10:14;;;;;;;3.63;3.38;;;7.50;99.90;;;;;;5153427;27;20117;-64
2022/09/30 05:12:39;;;;;;;3.95;3.65;;;7.50;99.90;;;;;;5153555;27;20039;-64
2022/09/30 05:15:06;;;;;;;3.90;3.60;;;7.40;99.90;;;;;;5153166;27;20117;-64
2022/09/30 05:17:32;;;;;;;3.53;3.22;;;7.40;99.90;;;;;;5153401;27;20070;-64
2022/09/30 05:19:58;;;;;;;4.32;3.97;;;7.30;99.90;;;;;;5153484;27;20549;-64
2022/09/30 05:22:25;;;;;;;3.67;3.47;;;7.10;99.90;;;;;;5153565;27;20035;-64
2022/09/30 05:24:51;;;;;;;3.83;3.53;;;7.00;99.90;;;;;;5153063;27;20035;-64
2022/09/30 05:27:18;;;;;;;3.95;3.65;;;7.10;99.90;;;;;;5151354;27;20115;-64
2022/09/30 05:29:43;;;;;;;4.07;3.58;;;7.10;99.90;;;;;;5150143;27;20035;-65
2022/09/30 05:32:09;;;;;;;4.10;3.70;;;7.00;99.90;;;;;;5150953;27;20076;-65
2022/09/30 05:34:35;;;;;;;5.45;3.67;;;7.00;99.90;;;;;;5153171;27;20038;-65
2022/09/30 05:37:01;;;;;;;5.55;3.70;;;7.00;99.90;;;;;;5151539;27;20038;-65
2022/09/30 05:39:26;;;;;;;4.15;3.60;;;7.00;99.90;;;;;;5151940;27;20042;-64
2022/09/30 05:41:54;;;;;;;4.10;3.80;;;7.00;99.90;;;;;;5152663;27;20406;-64
2022/09/30 05:44:20;;;;;;;3.70;3.40;;;7.00;99.90;;;;;;5152960;27;20041;-64
2022/09/30 05:46:46;;;;;;;4.07;3.65;;;7.00;99.90;;;;;;5152988;27;20039;-64
2022/09/30 05:49:11;;;;;;;3.38;3.17;;;7.10;99.90;;;;;;5153856;27;20035;-64
2022/09/30 05:51:37;;;;;;;3.78;3.47;;;7.10;99.90;;;;;;5125056;27;20071;-64
2022/09/30 05:54:02;;;;;;;3.50;3.20;;;7.20;99.90;;;;;;5136205;27;20031;-64
2022/09/30 05:56:28;;;;;;;4.38;3.97;;;7.10;99.90;;;;;;5136231;27;20045;-64
2022/09/30 05:58:53;;;;;;;5.25;3.42;;;7.20;99.90;;;;;;5136168;27;20046;-64
2022/09/30 06:01:19;;;;;;;4.70;4.32;;;7.10;99.90;;;;;;5136119;27;20039;-64
2022/09/30 06:03:45;;;;;;;4.80;4.10;;;7.00;99.90;;;;;;5136116;27;20092;-64
2022/09/30 06:06:12;;;;;;;4.32;3.97;;;7.10;99.90;;;;;;5134744;27;20051;-64
2022/09/30 06:08:39;;;;;;;4.07;3.67;;;7.10;99.90;;;;;;5136225;27;20027;-64
2022/09/30 06:11:10;;;;;;;4.07;3.65;;;7.20;99.90;;;;;;5136120;27;20058;-64
2022/09/30 06:13:37;;;;;;;5.22;4.07;;;7.10;99.90;;;;;;5136062;27;20051;-64
2022/09/30 06:16:04;;;;;;;3.88;3.58;;;7.10;99.90;;;;;;5135561;27;20066;-64
2022/09/30 06:18:30;;;;;;;3.90;3.60;;;7.10;99.90;;;;;;5134863;27;20055;-64
2022/09/30 06:21:00;;;;;;;5.18;4.00;;;7.10;99.90;;;;;;5135891;27;20160;-64
2022/09/30 06:23:26;;;;;;;4.70;3.80;;;7.20;99.90;;;;;;5134749;27;20103;-64
2022/09/30 06:25:53;;;;;;;4.00;3.70;;;7.20;99.90;;;;;;5135493;27;20043;-64
2022/09/30 06:28:19;;;;;;;4.32;3.92;;;7.20;99.90;;;;;;5135649;27;20054;-64
2022/09/30 06:30:45;;;;;;;6.05;4.50;;;7.30;99.90;;;;;;5135687;27;20085;-64
2022/09/30 06:33:12;;;;;;;5.28;4.78;;;7.40;99.90;;;;;;5135690;27;20043;-64
2022/09/30 06:35:40;;;;;;;6.13;5.53;;;7.50;99.90;;;;;;5135376;27;20038;-64
2022/09/30 06:38:05;;;;;;;7.88;5.57;;;7.60;99.90;;;;;;5135662;27;20115;-64
2022/09/30 06:40:31;;;;;;;9.93;6.78;;;7.60;99.90;;;;;;5135486;27;20458;-64
2022/09/30 06:43:01;;;;;;;7.28;6.43;;;7.70;99.90;;;;;;5135407;27;20543;-64
2022/09/30 06:45:27;;;;;;;8.77;7.50;;;7.80;99.90;;;;;;5135121;27;20046;-64
2022/09/30 06:47:57;;;;;;;9.00;7.90;;;7.90;99.90;;;;;;5135486;27;20084;-65
2022/09/30 06:50:22;;;;;;;8.57;7.45;;;8.00;99.90;;;;;;5135456;27;20039;-64
2022/09/30 06:52:48;;;;;;;12.65;7.70;;;8.10;99.90;;;;;;5135358;27;20073;-65
2022/09/30 06:55:13;;;;;;;8.48;7.65;;;8.10;99.90;;;;;;5133582;27;20043;-64
2022/09/30 06:57:43;;;;;;;8.35;7.18;;;8.10;99.90;;;;;;5135114;27;20050;-64
2022/09/30 07:00:10;;;;;;;10.57;8.75;;;8.20;99.90;;;;;;5134518;27;20047;-64
2022/09/30 07:02:35;;;;;;;9.25;8.30;;;8.30;99.90;;;;;;5135260;27;20507;-64
2022/09/30 07:05:02;;;;;;;11.80;8.52;;;8.30;99.90;;;;;;5116226;27;20091;-64
2022/09/30 07:07:28;;;;;;;9.40;8.40;;;8.40;99.90;;;;;;5135143;27;20451;-64
2022/09/30 07:09:54;;;;;;;10.68;8.10;;;8.50;99.90;;;;;;5134714;27;20137;-64
2022/09/30 07:12:19;;;;;;;10.52;9.05;;;8.50;99.90;;;;;;5134868;27;20395;-65
2022/09/30 07:14:45;;;;;;;10.60;8.70;;;8.50;99.90;;;;;;5134682;27;20402;-64
2022/09/30 07:17:10;;;;;;;10.65;9.20;;;8.60;99.90;;;;;;5134814;27;20031;-64
2022/09/30 07:19:36;;;;;;;11.40;9.15;;;8.60;99.90;;;;;;5134912;27;20106;-65
2022/09/30 07:24:46;;;;;;;13.23;9.18;;;8.70;99.90;;;;;;5134176;27;20039;-65
2022/09/30 07:27:12;;;;;;;13.35;8.82;;;8.80;99.90;;;;;;5134883;27;20035;-64
2022/09/30 07:29:40;;;;;;;11.65;9.77;;;8.80;99.90;;;;;;5142854;27;20027;-65
2022/09/30 07:32:06;;;;;;;10.40;9.30;;;8.80;99.90;;;;;;5137345;27;20099;-65
2022/09/30 07:34:32;;;;;;;9.98;8.35;;;8.90;99.90;;;;;;5136827;27;20106;-64
2022/09/30 07:36:57;;;;;;;12.90;10.25;;;8.90;99.90;;;;;;5133143;27;20122;-64
2022/09/30 07:39:23;;;;;;;12.32;9.85;;;8.90;99.90;;;;;;5134265;27;20055;-64
2022/09/30 07:41:49;;;;;;;11.10;9.90;;;9.00;99.90;;;;;;5134380;27;20042;-64
2022/09/30 07:44:15;;;;;;;12.23;9.13;;;9.00;99.90;;;;;;5142192;27;20062;-64
2022/09/30 07:46:42;;;;;;;11.00;8.65;;;9.00;99.90;;;;;;5142999;27;20055;-64
2022/09/30 07:49:13;;;;;;;10.82;7.93;;;9.10;99.90;;;;;;5148750;27;20446;-64
2022/09/30 07:51:42;;;;;;;11.10;9.32;;;9.10;99.90;;;;;;5144172;27;20050;-64
2022/09/30 07:54:16;;;;;;;12.35;9.52;;;9.20;99.90;;;;;;5144426;27;20031;-64
2022/09/30 07:56:43;;;;;;;13.73;9.45;;;9.20;99.90;;;;;;5143394;27;20059;-64
2022/09/30 07:59:10;;;;;;;15.23;8.98;;;9.30;99.90;;;;;;5143420;27;20030;-64
2022/09/30 08:01:36;;;;;;;14.02;8.70;;;9.40;99.90;;;;;;5148294;27;20086;-64
2022/09/30 08:04:04;;;;;;;12.63;10.40;;;9.30;99.90;;;;;;5154215;27;20113;-64
2022/09/30 08:06:31;;;;;;;11.98;9.07;;;9.40;99.90;;;;;;5154266;27;20502;-65
2022/09/30 08:08:58;;;;;;;11.20;10.00;;;9.40;99.90;;;;;;5154553;27;20619;-64
2022/09/30 08:11:25;;;;;;;14.68;9.80;;;9.50;99.90;;;;;;5154289;27;20043;-64
2022/09/30 08:13:52;;;;;;;12.75;9.77;;;9.50;99.90;;;;;;5153686;27;20038;-64
2022/09/30 08:16:18;;;;;;;13.32;9.43;;;9.50;99.90;;;;;;5154333;27;20521;-65
2022/09/30 08:18:44;;;;;;;11.85;10.35;;;9.60;99.90;;;;;;5153734;27;20049;-64
2022/09/30 08:21:10;;;;;;;16.23;9.73;;;9.60;99.90;;;;;;5145483;27;20419;-64
2022/09/30 08:23:35;;;;;;;15.63;10.20;;;9.60;99.90;;;;;;5141277;27;20041;-64
2022/09/30 08:26:09;;;;;;;13.13;9.65;;;9.70;99.90;;;;;;5151393;27;20039;-65
2022/09/30 08:28:37;;;;;;;13.95;10.48;;;9.80;99.90;;;;;;5154349;27;20042;-65
2022/09/30 08:31:15;;;;;;;18.77;10.15;;;9.80;99.90;;;;;;5154140;27;20083;-66
2022/09/30 08:33:41;;;;;;;13.18;10.07;;;10.00;99.90;;;;;;5152642;27;20478;-66
2022/09/30 08:36:09;;;;;;;12.02;9.98;;;10.00;99.90;;;;;;5135112;27;20054;-66
2022/09/30 08:38:35;;;;;;;15.75;10.55;;;10.00;99.90;;;;;;5152651;27;20043;-66
2022/09/30 08:41:16;;;;;;;15.95;10.88;;;10.10;99.90;;;;;;5154041;27;20043;-66
2022/09/30 08:44:06;;;;;;;13.20;9.88;;;10.20;99.90;;;;;;5153809;27;20122;-65
2022/09/30 08:46:45;;;;;;;14.65;9.27;;;10.20;99.90;;;;;;5152307;27;20046;-66
2022/09/30 08:49:43;;;;;;;10.85;9.27;;;10.40;99.90;;;;;;5154025;27;20062;-66
2022/09/30 08:52:18;;;;;;;13.52;9.73;;;10.50;99.90;;;;;;5153846;27;20034;-66
2022/09/30 08:54:50;;;;;;;10.55;9.45;;;10.50;99.90;;;;;;5153212;27;20486;-66
2022/09/30 08:57:16;;;;;;;12.40;9.98;;;10.60;99.90;;;;;;5153729;27;20543;-66
2022/09/30 08:59:48;;;;;;;12.43;9.73;;;10.80;99.90;;;;;;5152412;27;20041;-66
2022/09/30 09:02:29;;;;;;;16.10;9.65;;;10.80;99.90;;;;;;5153749;27;20042;-66
2022/09/30 09:05:01;;;;;;;10.20;8.98;;;10.90;99.90;;;;;;5153187;27;20057;-66
2022/09/30 09:07:54;;;;;;;10.10;9.07;;;11.00;99.90;;;;;;5153452;27;20077;-65
2022/09/30 09:10:37;;;;;;;11.70;7.68;;;11.00;99.90;;;;;;5110806;27;20047;-66
2022/09/30 09:13:11;;;;;;;9.88;8.30;;;10.90;99.90;;;;;;5153499;27;20095;-66
2022/09/30 09:15:54;;;;;;;10.73;9.10;;;11.00;99.90;;;;;;5151570;27;20087;-66
2022/09/30 09:18:36;;;;;;;10.55;8.65;;;11.20;99.90;;;;;;5153012;27;20401;-66
2022/09/30 09:21:13;;;;;;;12.32;9.35;;;11.30;99.90;;;;;;5153459;27;20049;-66
2022/09/30 09:23:40;;;;;;;10.73;8.98;;;11.30;99.90;;;;;;5154469;27;20482;-66
2022/09/30 09:26:07;;;;;;;11.50;8.95;;;11.40;99.90;;;;;;5157468;27;20035;-66
2022/09/30 09:28:43;;;;;;;12.82;9.43;;;11.50;99.90;;;;;;5157774;27;20110;-66
2022/09/30 09:31:16;;;;;;;11.40;9.85;;;11.50;99.90;;;;;;5157582;27;20046;-66
2022/09/30 09:33:42;;;;;;;;;;;11.70;99.90;;;;;;5157868;27;20039;-66
2022/09/30 09:36:24;;;;;;;14.82;9.10;;;11.60;99.90;;;;;;5157168;27;19938;-66
2022/09/30 09:39:15;;;;;;;12.00;9.18;;;11.70;99.90;;;;;;5157517;27;20035;-65
2022/09/30 09:42:00;;;;;;;9.75;8.10;;;11.90;99.90;;;;;;5157452;27;20038;-66
2022/09/30 09:44:37;;;;;;;14.38;8.52;;;11.90;99.90;;;;;;5156912;27;20042;-66
2022/09/30 09:47:04;;;;;;;11.43;8.00;;;12.00;99.90;;;;;;5157071;27;20502;-66
2022/09/30 09:49:36;;;;;;;10.00;8.02;;;12.10;99.90;;;;;;5157286;27;20443;-66
2022/09/30 09:52:04;;;;;;;;;;;12.20;99.90;;;;;;5156544;27;20041;-66
2022/09/30 09:54:31;;;;;;;11.70;8.35;;;12.10;99.90;;;;;;5155774;27;19915;-66
2022/09/30 09:57:08;;;;;;;11.73;9.10;;;12.20;99.90;;;;;;5156892;27;20129;-66
2022/09/30 09:59:34;;;;;;;10.45;9.35;;;12.20;99.90;;;;;;5156984;27;20063;-66
2022/09/30 10:01:59;;;;;;;14.35;8.75;;;12.40;99.90;;;;;;5157141;27;20065;-66
2022/09/30 10:04:29;;;;;;;13.00;10.10;;;12.30;99.90;;;;;;5156756;27;20037;-66
2022/09/30 10:07:00;;;;;;;14.30;10.27;;;12.30;99.90;;;;;;5156891;27;20407;-66
2022/09/30 10:09:35;;;;;;;14.20;10.80;;;12.40;99.90;;;;;;5156733;27;20038;-66
2022/09/30 10:12:07;;;;;;;15.15;11.65;;;12.50;99.90;;;;;;5157042;27;20034;-66
2022/09/30 10:14:45;;;;;;;13.38;11.07;;;12.50;99.90;;;;;;5156433;27;20042;-66
2022/09/30 10:17:19;;;;;;;14.85;11.55;;;12.70;99.90;;;;;;5156794;27;20045;-66
2022/09/30 10:19:53;;;;;;;17.33;12.70;;;12.70;99.90;;;;;;5156588;27;20035;-66
2022/09/30 10:22:24;;;;;;;16.98;13.32;;;12.80;99.90;;;;;;5156864;27;20425;-66
2022/09/30 10:24:50;;;;;;;17.08;12.95;;;12.90;99.90;;;;;;5156340;27;20083;-65
2022/09/30 10:27:29;;;;;;;18.63;13.00;;;12.90;99.90;;;;;;5155181;27;20571;-66
2022/09/30 10:29:55;;;;;;;16.67;12.52;;;13.10;99.90;;;;;;5156413;27;20551;-65
2022/09/30 10:32:22;;;;;;;14.77;11.75;;;13.00;99.90;;;;;;5156300;27;20031;-66
2022/09/30 10:34:55;;;;;;;15.45;12.20;;;13.00;99.90;;;;;;5155134;27;20066;-66
2022/09/30 10:37:22;;;;;;;14.60;12.48;;;13.00;99.90;;;;;;5156421;27;20109;-66
2022/09/30 10:40:00;;;;;;;15.30;11.15;;;12.90;99.90;;;;;;5156253;27;20042;-66
2022/09/30 10:42:28;;;;;;;14.77;10.77;;;13.10;99.90;;;;;;5156138;27;20046;-66
2022/09/30 10:45:01;;;;;;;12.27;9.50;;;13.10;99.90;;;;;;5155531;27;20062;-66
2022/09/30 10:47:28;;;;;;;13.27;9.90;;;13.10;99.90;;;;;;5156413;27;20122;-66
2022/09/30 10:50:05;;;;;;;13.43;9.80;;;13.30;99.90;;;;;;5156212;27;20030;-66
2022/09/30 10:52:36;;;;;;;11.63;9.05;;;13.30;99.90;;;;;;5156118;27;20038;-66
2022/09/30 10:55:07;;;;;;;12.57;8.00;;;13.50;99.90;;;;;;5154524;27;20045;-65
2022/09/30 10:57:37;;;;;;;8.50;7.03;;;13.70;99.90;;;;;;5154690;27;20066;-66
2022/09/30 11:00:20;;;;;;;9.20;6.47;;;13.70;99.90;;;;;;5155738;27;20272;-66
2022/09/30 11:03:01;;;;;;;11.93;5.68;;;13.60;99.90;;;;;;5155967;27;20135;-66
2022/09/30 11:05:31;;;;;;;5.40;4.55;;;13.60;99.90;;;;;;5155404;27;20047;-66
2022/09/30 11:08:19;;;;;;;9.52;7.20;;;13.50;99.90;;;;;;5155970;27;20045;-66
2022/09/30 11:11:09;;;;;;;10.32;5.75;;;13.60;99.90;;;;;;5155807;27;20035;-66
2022/09/30 11:13:40;;;;;;;7.97;6.22;;;13.50;99.90;;;;;;5155681;27;20035;-66
2022/09/30 11:16:20;;;;;;;7.77;6.30;;;13.50;99.90;;;;;;5155328;27;20038;-66
2022/09/30 11:18:58;;;;;;;10.90;8.13;;;13.50;99.90;;;;;;5155120;27;20062;-66
2022/09/30 11:21:30;;;;;;;12.13;8.25;;;13.50;99.90;;;;;;5155473;27;20098;-66
2022/09/30 11:24:11;;;;;;;11.00;8.73;;;13.60;99.90;;;;;;5155164;27;20038;-65
2022/09/30 11:27:09;;;;;;;12.50;8.20;;;13.60;99.90;;;;;;5155094;27;20467;-66
2022/09/30 11:29:51;;;;;;;12.60;10.13;;;13.70;99.90;;;;;;5137017;27;20475;-65
2022/09/30 11:32:33;;;;;;;16.20;11.93;;;13.90;99.90;;;;;;5153981;27;20042;-66
2022/09/30 11:35:18;;;;;;;15.02;10.18;;;14.00;99.90;;;;;;5153461;27;20049;-66
2022/09/30 11:38:27;;;;;;;13.55;9.85;;;14.10;99.90;;;;;;5155192;27;20500;-66
2022/09/30 11:40:58;;;;;;;12.27;8.70;;;14.20;99.90;;;;;;5155117;27;20503;-66
2022/09/30 11:44:05;;;;;;;14.93;8.45;;;14.20;99.90;;;;;;5155052;27;20398;-66
2022/09/30 11:46:52;;;;;;;11.38;9.00;;;14.20;99.90;;;;;;5154620;27;20047;-66
2022/09/30 11:49:39;;;;;;;11.32;9.13;;;14.30;99.90;;;;;;5155108;27;20038;-66
2022/09/30 11:52:38;;;;;;;12.05;8.48;;;14.30;99.90;;;;;;5155031;27;20114;-66
2022/09/30 11:55:20;;;;;;;10.00;7.82;;;14.40;99.90;;;;;;5154556;27;20137;-66
2022/09/30 11:57:52;;;;;;;10.70;8.43;;;14.40;99.90;;;;;;5154705;27;20394;-66
2022/09/30 12:00:19;;;;;;;11.88;8.38;;;14.40;99.90;;;;;;5154668;27;20038;-65
2022/09/30 12:02:52;;;;;;;14.07;10.40;;;14.40;99.90;;;;;;5154678;27;20042;-65
2022/09/30 12:05:22;;;;;;;13.38;9.38;;;14.40;99.90;;;;;;5154058;27;20402;-65
2022/09/30 12:08:01;;;;;;;11.35;9.10;;;14.40;99.90;;;;;;5154698;27;20452;-66
2022/09/30 12:10:46;;;;;;;12.02;9.23;;;14.50;99.90;;;;;;5154412;27;20034;-65
2022/09/30 12:13:32;;;;;;;11.88;9.10;;;14.60;99.90;;;;;;5154390;27;20062;-66
2022/09/30 12:15:59;;;;;;;11.20;7.82;;;14.60;99.90;;;;;;5154247;27;20069;-66
2022/09/30 12:18:39;;;;;;;11.75;7.38;;;14.60;99.90;;;;;;5153866;27;20074;-66
2022/09/30 12:21:23;;;;;;;11.02;7.30;;;14.60;99.90;;;;;;5154267;27;20162;-66
2022/09/30 12:23:56;;;;;;;9.50;7.10;;;14.60;99.90;;;;;;5153930;27;20398;-66
2022/09/30 12:26:23;;;;;;;10.02;7.15;;;14.70;99.90;;;;;;5154221;27;20455;-66
2022/09/30 12:32:15;;;;;;;8.68;7.45;;;14.80;99.90;;;;;;5152650;27;20486;-65
2022/09/30 12:34:55;;;;;;;14.48;8.52;;;14.80;99.90;;;;;;5154006;27;20511;-65
2022/09/30 12:37:31;;;;;;;11.05;8.20;;;14.80;99.90;;;;;;5154099;27;20111;-66
2022/09/30 12:40:24;;;;;;;10.32;7.55;;;14.80;99.90;;;;;;5153765;27;20483;-66
2022/09/30 12:43:08;;;;;;;9.55;7.40;;;14.80;99.90;;;;;;5154092;27;20038;-65
2022/09/30 12:46:02;;;;;;;10.80;7.72;;;14.90;99.90;;;;;;5153487;27;20042;-65
2022/09/30 12:48:40;;;;;;;11.95;8.13;;;14.90;99.90;;;;;;5153773;27;20456;-65
2022/09/30 12:51:06;;;;;;;9.15;7.22;;;14.90;99.90;;;;;;5153993;27;20038;-65
2022/09/30 12:53:36;;;;;;;10.98;8.40;;;14.90;99.90;;;;;;5153852;27;20083;-65
2022/09/30 12:56:12;;;;;;;13.52;8.70;;;14.80;99.90;;;;;;5153323;27;20034;-65
2022/09/30 12:58:46;;;;;;;14.40;9.65;;;14.90;99.90;;;;;;5153089;27;20099;-65
2022/09/30 13:01:21;;;;;;;12.02;9.68;;;14.90;99.90;;;;;;5153560;27;20121;-66
2022/09/30 13:04:08;;;;;;;12.77;10.98;;;14.90;99.90;;;;;;5153289;27;20114;-65
2022/09/30 13:06:46;;;;;;;13.68;10.25;;;15.00;99.90;;;;;;5153516;27;20035;-66
2022/09/30 13:09:33;;;;;;;10.77;8.73;;;15.00;99.90;;;;;;5153436;27;20444;-65
2022/09/30 13:11:58;;;;;;;16.45;11.38;;;15.00;99.90;;;;;;5153613;27;20042;-65
2022/09/30 13:14:36;;;;;;;13.05;9.20;;;15.10;99.90;;;;;;5153278;27;20031;-65
2022/09/30 13:17:08;;;;;;;10.95;8.88;;;15.20;99.90;;;;;;5153375;27;20039;-66
2022/09/30 13:19:40;;;;;;;12.93;9.25;;;15.20;99.90;;;;;;5152776;27;20030;-66
2022/09/30 13:22:18;;;;;;;14.15;10.27;;;15.30;99.90;;;;;;5153582;27;20042;-66